Gerrardstown, West Virginia
Current Conditions -  °F | °C
As of 3:53 AM on Sunday 26 Oct 2014 (Local Time) from KMRB Reporting Station
Clear Clear  
Wind Chill: 61°   Ceiling: Unl
Heat Index: 61°   Visibility: 10mi
Dew Point: 30°   Wind: 15mph
Humidity: 31%   Direction: 310°NW
Pressure: 29.74"   Gusts: 24mph
Location:  39.37°N, 78.1°W
Report Text: KMRB 260753Z AUTO 31013G21KT 10SM CLR 16/M01 A2974 RMK AO2 SLP067 T01611011 TSNO
Loading
Personal Weather Stations






























Interactive Weather Map
Tropical Storm Tracking
New forecast layout! Learn more

10-Day Weather Forecast

Advertisements
Track Severe Weather on mobile